createdAt,value
2016-08-21T00:00:50.868Z,954.57
2016-08-21T00:01:50.872Z,954.53
2016-08-21T00:02:50.907Z,954.58
2016-08-21T00:03:50.857Z,954.56
2016-08-21T00:04:50.859Z,954.58
2016-08-21T00:05:50.863Z,954.56
2016-08-21T00:06:50.851Z,954.55
2016-08-21T00:07:50.845Z,954.51
2016-08-21T00:08:50.842Z,954.51
2016-08-21T00:09:50.838Z,954.55
2016-08-21T00:10:50.943Z,954.56
2016-08-21T00:11:50.981Z,954.59
2016-08-21T00:12:50.906Z,954.67
2016-08-21T00:13:50.827Z,954.67
2016-08-21T00:14:50.830Z,954.72
2016-08-21T00:15:51.246Z,954.76
2016-08-21T00:16:50.842Z,954.74
2016-08-21T00:17:50.932Z,954.74
2016-08-21T00:18:50.821Z,954.74
2016-08-21T00:19:50.806Z,954.77
2016-08-21T00:20:50.821Z,954.76
2016-08-21T00:21:50.807Z,954.76
2016-08-21T00:22:50.803Z,954.78
2016-08-21T00:23:50.794Z,954.82
2016-08-21T00:24:50.791Z,954.75
2016-08-21T00:25:51.223Z,954.79
2016-08-21T00:27:50.893Z,954.73
2016-08-21T00:28:51.194Z,954.72
2016-08-21T00:29:50.987Z,954.71
2016-08-21T00:30:50.979Z,954.75
2016-08-21T00:31:50.999Z,954.77
2016-08-21T00:32:51.073Z,954.77
2016-08-21T00:33:50.882Z,954.78
2016-08-21T00:34:50.963Z,954.81
2016-08-21T00:35:50.962Z,954.76
2016-08-21T00:36:50.814Z,954.83
2016-08-21T00:37:50.839Z,954.77
2016-08-21T00:38:50.769Z,954.8
2016-08-21T00:39:50.878Z,954.79
2016-08-21T00:40:50.939Z,954.78
2016-08-21T00:41:50.984Z,954.76
2016-08-21T00:42:50.903Z,954.76
2016-08-21T00:43:51.389Z,954.84
2016-08-21T00:44:50.855Z,954.83
2016-08-21T00:45:50.972Z,954.85
2016-08-21T00:46:51.098Z,954.88
2016-08-21T00:47:50.795Z,954.88
2016-08-21T00:48:50.796Z,954.87
2016-08-21T00:49:50.826Z,954.85
2016-08-21T00:50:51.103Z,954.86
2016-08-21T00:51:50.845Z,954.87
2016-08-21T00:52:50.864Z,954.87
2016-08-21T00:53:50.785Z,954.87
2016-08-21T00:54:50.951Z,954.86
2016-08-21T00:55:51.114Z,954.88
2016-08-21T00:56:50.780Z,954.94
2016-08-21T00:57:50.808Z,954.95
2016-08-21T00:58:50.811Z,954.9
2016-08-21T00:59:50.786Z,954.95
2016-08-21T01:00:50.768Z,954.91
2016-08-21T01:01:50.826Z,954.95
2016-08-21T01:02:50.761Z,954.96
2016-08-21T01:03:50.793Z,954.98
2016-08-21T01:04:50.733Z,955
2016-08-21T01:05:50.670Z,955
2016-08-21T01:06:50.670Z,955
2016-08-21T01:07:50.683Z,955.03
2016-08-21T01:08:50.688Z,955
2016-08-21T01:09:50.683Z,954.99
2016-08-21T01:10:50.663Z,954.99
2016-08-21T01:11:50.814Z,954.93
2016-08-21T01:12:50.680Z,954.97
2016-08-21T01:13:50.675Z,954.93
2016-08-21T01:14:50.650Z,954.94
2016-08-21T01:15:50.644Z,954.98
2016-08-21T01:16:50.644Z,954.96
2016-08-21T01:17:50.651Z,955
2016-08-21T01:18:50.633Z,955.01
2016-08-21T01:19:50.643Z,955.01
2016-08-21T01:20:50.636Z,955.05
2016-08-21T01:21:50.635Z,955.05
2016-08-21T01:22:50.622Z,955.06
2016-08-21T01:23:50.621Z,955.02
2016-08-21T01:24:50.622Z,955.04
2016-08-21T01:25:50.618Z,955.04
2016-08-21T01:26:50.612Z,955.06
2016-08-21T01:27:50.802Z,955.03
2016-08-21T01:28:50.606Z,955.07
2016-08-21T01:29:50.611Z,955.12
2016-08-21T01:30:50.625Z,955.11
2016-08-21T01:31:50.757Z,955.13
2016-08-21T01:32:50.593Z,955.14
2016-08-21T01:33:50.630Z,955.16
2016-08-21T01:34:50.590Z,955.13
2016-08-21T01:35:50.730Z,955.17
2016-08-21T01:36:50.719Z,955.2
2016-08-21T01:37:50.836Z,955.18
2016-08-21T01:38:50.577Z,955.2
2016-08-21T01:39:50.623Z,955.25
2016-08-21T01:40:50.619Z,955.21
2016-08-21T01:41:50.797Z,955.2
2016-08-21T01:42:50.646Z,955.2
2016-08-21T01:43:50.674Z,955.26
2016-08-21T01:44:50.638Z,955.25
2016-08-21T01:45:50.964Z,955.3
2016-08-21T01:46:50.712Z,955.34
2016-08-21T01:47:50.546Z,955.4
2016-08-21T01:48:50.551Z,955.4
2016-08-21T01:49:50.539Z,955.39
2016-08-21T01:50:50.538Z,955.41
2016-08-21T01:51:50.552Z,955.33
2016-08-21T01:52:50.531Z,955.31
2016-08-21T01:53:50.788Z,955.24
2016-08-21T01:54:50.530Z,955.27
2016-08-21T01:55:50.717Z,955.2
2016-08-21T01:56:50.515Z,955.23
2016-08-21T01:57:50.517Z,955.2
2016-08-21T01:58:50.522Z,955.25
2016-08-21T01:59:50.519Z,955.21
2016-08-21T02:00:50.510Z,955.2
2016-08-21T02:01:50.501Z,955.2
2016-08-21T02:02:50.501Z,955.2
2016-08-21T02:03:50.504Z,955.21
2016-08-21T02:04:50.504Z,955.21
2016-08-21T02:05:50.497Z,955.25
2016-08-21T02:06:50.485Z,955.34
2016-08-21T02:07:50.486Z,955.43
2016-08-21T02:08:50.485Z,955.37
2016-08-21T02:09:50.494Z,955.31
2016-08-21T02:10:50.484Z,955.17
2016-08-21T02:11:50.481Z,955.07
2016-08-21T02:12:50.464Z,955.02
2016-08-21T02:13:50.473Z,954.99
2016-08-21T02:14:50.460Z,954.97
2016-08-21T02:15:50.463Z,954.93
2016-08-21T02:16:50.457Z,954.9
2016-08-21T02:17:50.444Z,954.86
2016-08-21T02:18:50.444Z,954.88
2016-08-21T02:19:50.447Z,954.94
2016-08-21T02:20:50.514Z,954.98
2016-08-21T02:21:50.434Z,954.96
2016-08-21T02:22:50.446Z,954.93
2016-08-21T02:23:50.487Z,954.95
2016-08-21T02:24:50.462Z,954.9
2016-08-21T02:25:50.459Z,954.85
2016-08-21T02:26:50.469Z,954.82
2016-08-21T02:27:50.490Z,954.84
2016-08-21T02:28:50.455Z,954.87
2016-08-21T02:29:50.472Z,954.87
2016-08-21T02:30:50.437Z,954.91
2016-08-21T02:31:50.503Z,955
2016-08-21T02:32:50.564Z,955.08
2016-08-21T02:33:50.497Z,955.13
2016-08-21T02:34:50.425Z,955.1
2016-08-21T02:35:50.423Z,955.07
2016-08-21T02:36:50.423Z,955.12
2016-08-21T02:37:50.451Z,955.16
2016-08-21T02:38:50.521Z,955.2
2016-08-21T02:39:50.524Z,955.17
2016-08-21T02:40:50.456Z,955.2
2016-08-21T02:41:50.624Z,955.22
2016-08-21T02:42:50.469Z,955.29
2016-08-21T02:43:50.452Z,955.32
2016-08-21T02:44:50.530Z,955.25
2016-08-21T02:45:50.391Z,955.18
2016-08-21T02:46:50.411Z,955.08
2016-08-21T02:47:50.390Z,955.03
2016-08-21T02:48:50.414Z,955.04
2016-08-21T02:49:50.379Z,954.96
2016-08-21T02:50:50.367Z,954.81
2016-08-21T02:51:50.338Z,954.72
2016-08-21T02:52:50.326Z,954.6
2016-08-21T02:53:50.321Z,954.54
2016-08-21T02:54:50.314Z,954.49
2016-08-21T02:55:50.313Z,954.42
2016-08-21T02:56:50.322Z,954.51
2016-08-21T02:57:50.310Z,954.63
2016-08-21T02:58:50.308Z,954.86
2016-08-21T02:59:50.320Z,955.07
2016-08-21T03:00:50.317Z,955.14
2016-08-21T03:01:50.298Z,955.15
2016-08-21T03:02:50.293Z,955.11
2016-08-21T03:03:50.293Z,955.07
2016-08-21T03:04:50.284Z,955.16
2016-08-21T03:05:50.291Z,955.18
2016-08-21T03:06:50.275Z,955.18
2016-08-21T03:07:50.275Z,955.18
2016-08-21T03:08:50.272Z,955.15
2016-08-21T03:09:50.281Z,955.21
2016-08-21T03:10:50.260Z,955.28
2016-08-21T03:11:50.251Z,955.36
2016-08-21T03:12:50.256Z,955.34
2016-08-21T03:13:50.244Z,955.35
2016-08-21T03:14:50.242Z,955.31
2016-08-21T03:15:50.248Z,955.3
2016-08-21T03:16:50.246Z,955.3
2016-08-21T03:17:50.236Z,955.33
2016-08-21T03:18:50.238Z,955.32
2016-08-21T03:19:50.271Z,955.35
2016-08-21T03:20:50.229Z,955.36
2016-08-21T03:21:50.220Z,955.38
2016-08-21T03:22:50.262Z,955.39
2016-08-21T03:23:50.213Z,955.41
2016-08-21T03:24:50.212Z,955.4
2016-08-21T03:25:50.215Z,955.44
2016-08-21T03:26:50.220Z,955.4
2016-08-21T03:27:50.201Z,955.44
2016-08-21T03:28:50.201Z,955.41
2016-08-21T03:29:50.206Z,955.41
2016-08-21T03:30:50.198Z,955.4
2016-08-21T03:31:50.194Z,955.44
2016-08-21T03:32:50.189Z,955.45
2016-08-21T03:33:50.170Z,955.48
2016-08-21T03:34:50.176Z,955.49
2016-08-21T03:35:50.164Z,955.53
2016-08-21T03:36:50.177Z,955.48
2016-08-21T03:37:50.188Z,955.5
2016-08-21T03:38:50.160Z,955.46
2016-08-21T03:39:50.156Z,955.49
2016-08-21T03:40:50.151Z,955.53
2016-08-21T03:41:50.143Z,955.58
2016-08-21T03:42:50.147Z,955.6
2016-08-21T03:43:50.133Z,955.63
2016-08-21T03:44:50.139Z,955.66
2016-08-21T03:45:50.128Z,955.66
2016-08-21T03:46:50.122Z,955.71
2016-08-21T03:47:50.119Z,955.72
2016-08-21T03:48:50.126Z,955.76
2016-08-21T03:49:50.137Z,955.7
2016-08-21T03:50:50.132Z,955.69
2016-08-21T03:51:50.353Z,955.77
2016-08-21T03:52:50.109Z,955.81
2016-08-21T03:53:50.098Z,955.74
2016-08-21T03:54:50.086Z,955.74
2016-08-21T03:55:50.088Z,955.73
2016-08-21T03:56:50.084Z,955.75
2016-08-21T03:57:50.090Z,955.7
2016-08-21T03:58:50.083Z,955.69
2016-08-21T03:59:50.075Z,955.64
2016-08-21T15:28:49.611Z,957.74
2016-08-21T15:29:49.572Z,957.74
2016-08-21T15:30:49.549Z,957.75
2016-08-21T15:31:49.552Z,957.79
2016-08-21T15:32:49.549Z,957.75
2016-08-21T15:33:49.621Z,957.76
2016-08-21T15:34:49.551Z,957.8
2016-08-21T15:35:49.545Z,957.77
2016-08-21T15:36:49.541Z,957.77
2016-08-21T15:37:49.536Z,957.8
2016-08-21T15:38:49.546Z,957.78
2016-08-21T15:39:49.538Z,957.8
2016-08-21T15:40:49.555Z,957.77
2016-08-21T15:41:49.543Z,957.79
2016-08-21T15:42:49.559Z,957.77
2016-08-21T15:43:49.529Z,957.78
2016-08-21T15:44:49.521Z,957.8
2016-08-21T15:45:49.529Z,957.78
2016-08-21T15:46:49.516Z,957.79
2016-08-21T15:47:49.524Z,957.76
2016-08-21T15:48:49.521Z,957.77
2016-08-21T15:49:49.510Z,957.79
2016-08-21T15:50:49.513Z,957.74
2016-08-21T15:51:49.519Z,957.76
2016-08-21T15:52:49.510Z,957.75
2016-08-21T15:53:49.516Z,957.76
2016-08-21T15:54:49.497Z,957.74
2016-08-21T15:55:49.502Z,957.78
2016-08-21T15:56:49.500Z,957.78
2016-08-21T15:57:49.497Z,957.74
2016-08-21T15:58:49.496Z,957.77
2016-08-21T15:59:49.490Z,957.7
2016-08-21T16:00:49.497Z,957.7
2016-08-21T16:01:49.481Z,957.72
2016-08-21T16:02:49.481Z,957.74
2016-08-21T16:03:49.484Z,957.75
2016-08-21T16:04:49.472Z,957.71
2016-08-21T16:05:49.473Z,957.73
2016-08-21T16:06:49.482Z,957.76
2016-08-21T16:07:49.483Z,957.8
2016-08-21T16:08:49.469Z,957.81
2016-08-21T16:09:49.478Z,957.83
2016-08-21T16:10:49.475Z,957.83
2016-08-21T16:11:49.471Z,957.84
2016-08-21T16:12:49.459Z,957.82
2016-08-21T16:13:49.456Z,957.83
2016-08-21T16:14:49.525Z,957.87
2016-08-21T16:15:49.452Z,957.9
2016-08-21T16:16:49.456Z,957.93
2016-08-21T16:17:49.448Z,957.9
2016-08-21T16:18:49.445Z,957.93
2016-08-21T16:19:49.442Z,957.9
2016-08-21T16:20:49.457Z,957.94
2016-08-21T16:21:49.509Z,957.91
2016-08-21T16:22:49.449Z,957.97
2016-08-21T16:23:49.444Z,957.94
2016-08-21T16:24:49.458Z,957.96
2016-08-21T16:25:49.437Z,957.99
2016-08-21T16:26:49.430Z,958.01
2016-08-21T16:27:49.424Z,957.95
2016-08-21T16:28:49.428Z,958.01
2016-08-21T16:29:49.428Z,957.99
2016-08-21T16:30:49.416Z,957.99
2016-08-21T16:31:49.417Z,958.01
2016-08-21T16:32:49.420Z,958.02
2016-08-21T16:33:49.409Z,958.04
2016-08-21T16:34:49.414Z,958.07
2016-08-21T16:35:49.412Z,958.04
2016-08-21T16:36:49.402Z,958.05
2016-08-21T16:37:49.400Z,958.09
2016-08-21T16:38:49.399Z,958.09
2016-08-21T16:39:49.400Z,958.06
2016-08-21T16:40:49.398Z,958.09
2016-08-21T16:41:49.394Z,958.09
2016-08-21T16:42:49.393Z,958.1
2016-08-21T16:43:49.397Z,958.13
2016-08-21T16:44:49.383Z,958.09
2016-08-21T16:45:49.388Z,958.13
2016-08-21T16:46:49.382Z,958.12
2016-08-21T16:47:49.592Z,958.14
2016-08-21T16:48:49.371Z,958.12
2016-08-21T16:49:49.386Z,958.09
2016-08-21T16:50:49.371Z,958.13
2016-08-21T16:51:49.377Z,958.13
2016-08-21T16:52:49.386Z,958.16
2016-08-21T16:53:49.371Z,958.22
2016-08-21T16:54:49.375Z,958.18
2016-08-21T16:55:49.354Z,958.19
2016-08-21T16:56:49.353Z,958.2
2016-08-21T16:57:49.362Z,958.25
2016-08-21T16:58:49.371Z,958.27
2016-08-21T16:59:49.354Z,958.25
2016-08-21T17:00:49.347Z,958.25
2016-08-21T17:01:49.346Z,958.25
2016-08-21T17:02:49.353Z,958.3
2016-08-21T17:03:49.352Z,958.29
2016-08-21T17:04:49.343Z,958.29
2016-08-21T17:05:49.332Z,958.26
2016-08-21T17:06:49.337Z,958.28
2016-08-21T17:07:49.332Z,958.25
2016-08-21T17:08:49.338Z,958.24
2016-08-21T17:09:49.354Z,958.25
2016-08-21T17:10:49.327Z,958.21
2016-08-21T17:11:49.329Z,958.2
2016-08-21T17:12:49.323Z,958.22
2016-08-21T17:13:49.325Z,958.24
2016-08-21T17:14:49.320Z,958.22
2016-08-21T17:15:49.317Z,958.26
2016-08-21T17:16:49.300Z,958.29
2016-08-21T17:17:49.303Z,958.29
2016-08-21T17:18:49.329Z,958.26
2016-08-21T17:19:49.309Z,958.26
2016-08-21T17:20:49.293Z,958.27
2016-08-21T17:21:49.344Z,958.27
2016-08-21T17:22:49.294Z,958.32
2016-08-21T17:23:49.289Z,958.35
2016-08-21T17:24:49.295Z,958.37
2016-08-21T17:25:49.290Z,958.41
2016-08-21T17:26:49.282Z,958.36
2016-08-21T17:27:49.278Z,958.41
2016-08-21T17:28:49.272Z,958.43
2016-08-21T17:29:49.269Z,958.42
2016-08-21T17:30:49.305Z,958.42
2016-08-21T17:31:49.259Z,958.47
2016-08-21T17:32:49.285Z,958.51
2016-08-21T17:33:49.274Z,958.53
2016-08-21T17:34:49.260Z,958.58
2016-08-21T17:35:49.259Z,958.54
2016-08-21T17:36:49.258Z,958.58
2016-08-21T17:37:49.248Z,958.59
2016-08-21T17:38:49.242Z,958.55
2016-08-21T17:39:49.247Z,958.53
2016-08-21T17:40:49.254Z,958.57
2016-08-21T17:41:49.238Z,958.53
2016-08-21T17:42:49.230Z,958.58
2016-08-21T17:43:49.231Z,958.6
2016-08-21T17:44:49.236Z,958.59
2016-08-21T17:45:49.223Z,958.54
2016-08-21T17:46:49.228Z,958.55
2016-08-21T17:47:49.218Z,958.55
2016-08-21T17:48:49.211Z,958.62
2016-08-21T17:49:49.349Z,958.57
2016-08-21T17:50:49.214Z,958.58
2016-08-21T17:51:49.207Z,958.59
2016-08-21T17:52:49.202Z,958.62
2016-08-21T17:53:49.195Z,958.62
2016-08-21T17:54:49.197Z,958.65
2016-08-21T17:55:49.200Z,958.69
2016-08-21T17:56:49.187Z,958.72
2016-08-21T17:57:49.187Z,958.76
2016-08-21T17:58:49.181Z,958.76
2016-08-21T17:59:49.187Z,958.8
2016-08-21T18:00:49.185Z,958.79
2016-08-21T18:01:49.174Z,958.82
2016-08-21T18:02:49.253Z,958.79
2016-08-21T18:03:49.164Z,958.81
2016-08-21T18:04:49.168Z,958.84
2016-08-21T18:05:49.162Z,958.88
2016-08-21T18:06:49.156Z,958.88
2016-08-21T18:07:49.149Z,958.92
2016-08-21T18:08:49.146Z,958.93
2016-08-21T18:09:49.156Z,958.96
2016-08-21T18:10:49.142Z,958.93
2016-08-21T18:11:49.144Z,958.93
2016-08-21T18:12:49.131Z,958.99
2016-08-21T18:13:49.131Z,959.01
2016-08-21T18:14:49.137Z,959.02
2016-08-21T18:15:49.129Z,959.04
2016-08-21T18:16:49.116Z,959
2016-08-21T18:17:49.112Z,959.03
2016-08-21T18:18:49.121Z,959.09
2016-08-21T18:19:49.110Z,959.12
2016-08-21T18:20:49.121Z,959.1
2016-08-21T18:21:49.106Z,959.14
2016-08-21T18:22:49.098Z,959.16
2016-08-21T18:23:49.102Z,959.2
2016-08-21T18:24:49.092Z,959.25
2016-08-21T18:25:49.087Z,959.29
2016-08-21T18:26:49.080Z,959.33
2016-08-21T18:27:49.078Z,959.39
2016-08-21T18:28:49.077Z,959.39
2016-08-21T18:29:49.098Z,959.43
2016-08-21T18:30:49.061Z,959.45
2016-08-21T18:31:49.067Z,959.44
2016-08-21T18:32:49.275Z,959.44
2016-08-21T18:33:49.053Z,959.48
2016-08-21T18:34:49.046Z,959.46
2016-08-21T18:35:49.051Z,959.48
2016-08-21T18:36:49.051Z,959.49
2016-08-21T18:37:49.041Z,959.5
2016-08-21T18:38:49.033Z,959.55
2016-08-21T18:39:49.025Z,959.59
2016-08-21T18:40:49.028Z,959.58
2016-08-21T18:41:49.034Z,959.55
2016-08-21T18:42:49.018Z,959.59
2016-08-21T18:43:49.019Z,959.6
2016-08-21T18:44:49.009Z,959.61
2016-08-21T18:45:49.016Z,959.61
2016-08-21T18:46:49.000Z,959.63
2016-08-21T18:47:49.016Z,959.68
2016-08-21T18:48:48.998Z,959.72
2016-08-21T18:49:48.990Z,959.71
2016-08-21T18:50:48.989Z,959.73
2016-08-21T18:51:48.982Z,959.77
2016-08-21T18:52:48.972Z,959.75
2016-08-21T18:53:48.990Z,959.76
2016-08-21T18:54:48.963Z,959.76
2016-08-21T18:55:48.961Z,959.76
2016-08-21T18:56:48.959Z,959.78
2016-08-21T18:57:48.962Z,959.81
2016-08-21T18:58:48.955Z,959.78
2016-08-21T18:59:48.941Z,959.79
2016-08-21T19:00:48.939Z,959.82
2016-08-21T19:01:48.934Z,959.84
2016-08-21T19:02:48.938Z,959.87
2016-08-21T19:03:48.946Z,959.85
2016-08-21T19:04:48.926Z,959.85
2016-08-21T19:05:48.926Z,959.81
2016-08-21T19:06:48.913Z,959.81
2016-08-21T19:07:48.922Z,959.8
2016-08-21T19:08:48.910Z,959.82
2016-08-21T19:09:48.900Z,959.84
2016-08-21T19:10:48.892Z,959.86
2016-08-21T19:11:48.898Z,959.89
2016-08-21T19:12:48.888Z,959.91
2016-08-21T19:13:48.880Z,959.93
2016-08-21T19:14:48.882Z,960.03
2016-08-21T19:15:48.872Z,960.01
2016-08-21T19:16:48.874Z,960.04
2016-08-21T19:17:48.866Z,960.04
2016-08-21T19:18:48.857Z,960.03
2016-08-21T19:19:48.850Z,960.01
2016-08-21T19:20:48.857Z,960.02
2016-08-21T19:21:48.863Z,960.09
2016-08-21T19:22:48.837Z,960.12
2016-08-21T19:23:48.837Z,960.09
2016-08-21T19:24:48.855Z,960.07
2016-08-21T19:25:49.115Z,960.11
2016-08-21T19:26:48.852Z,960.08
2016-08-21T19:27:48.818Z,960.16
2016-08-21T19:28:48.810Z,960.09
2016-08-21T19:29:48.812Z,960.1
2016-08-21T19:30:48.800Z,960.12
2016-08-21T19:31:48.802Z,960.15
2016-08-21T19:32:48.803Z,960.16
2016-08-21T19:33:48.794Z,960.16
2016-08-21T19:34:48.789Z,960.18
2016-08-21T19:35:48.787Z,960.16
2016-08-21T19:36:48.774Z,960.17
2016-08-21T19:37:48.771Z,960.2
2016-08-21T19:38:48.763Z,960.21
2016-08-21T19:39:48.762Z,960.25
2016-08-21T19:40:48.759Z,960.28
2016-08-21T19:41:48.768Z,960.28
2016-08-21T19:42:48.744Z,960.3
2016-08-21T19:43:48.743Z,960.34
2016-08-21T19:44:48.737Z,960.31
2016-08-21T19:45:48.734Z,960.33
2016-08-21T19:46:48.725Z,960.39
2016-08-21T19:47:48.965Z,960.4
2016-08-21T19:48:48.720Z,960.4
2016-08-21T19:49:48.730Z,960.4
2016-08-21T19:50:48.708Z,960.43
2016-08-21T19:51:48.701Z,960.44
2016-08-21T19:52:48.689Z,960.45
2016-08-21T19:53:48.708Z,960.45
2016-08-21T19:54:48.691Z,960.44
2016-08-21T19:55:48.682Z,960.48
2016-08-21T19:56:48.674Z,960.47
2016-08-21T19:57:48.678Z,960.51
2016-08-21T19:58:48.672Z,960.48
2016-08-21T19:59:48.719Z,960.53
2016-08-21T20:00:48.719Z,960.54
2016-08-21T20:01:48.668Z,960.56
2016-08-21T20:02:48.735Z,960.53
2016-08-21T20:03:48.923Z,960.54
2016-08-21T20:04:48.631Z,960.57
2016-08-21T20:05:48.637Z,960.55
2016-08-21T20:06:48.631Z,960.59
2016-08-21T20:07:48.618Z,960.57
2016-08-21T20:08:48.609Z,960.6
2016-08-21T20:09:48.609Z,960.62
2016-08-21T20:10:48.614Z,960.63
2016-08-21T20:11:48.615Z,960.6
2016-08-21T20:12:48.593Z,960.59
2016-08-21T20:13:48.592Z,960.61
2016-08-21T20:14:48.590Z,960.57
2016-08-21T20:15:48.580Z,960.6
2016-08-21T20:16:48.616Z,960.6
2016-08-21T20:17:48.630Z,960.61
2016-08-21T20:18:48.562Z,960.59
2016-08-21T20:19:48.556Z,960.63
2016-08-21T20:20:48.559Z,960.57
2016-08-21T20:21:48.549Z,960.6
2016-08-21T20:22:48.573Z,960.61
2016-08-21T20:23:48.560Z,960.58
2016-08-21T20:24:48.539Z,960.55
2016-08-21T20:25:48.548Z,960.55
2016-08-21T20:26:48.574Z,960.55
2016-08-21T20:27:48.619Z,960.54
2016-08-21T20:28:48.555Z,960.56
2016-08-21T20:29:48.539Z,960.51
2016-08-21T20:30:48.541Z,960.52
2016-08-21T20:31:48.513Z,960.5
2016-08-21T20:32:48.507Z,960.53
2016-08-21T20:33:48.487Z,960.49
2016-08-21T20:34:48.484Z,960.52
2016-08-21T20:35:48.486Z,960.5
2016-08-21T20:36:48.480Z,960.51
2016-08-21T20:37:48.555Z,960.54
2016-08-21T20:38:48.468Z,960.53
2016-08-21T20:39:48.468Z,960.52
2016-08-21T20:40:48.471Z,960.5
2016-08-21T20:41:48.460Z,960.52
2016-08-21T20:42:48.448Z,960.51
2016-08-21T20:43:48.448Z,960.53
2016-08-21T20:44:48.439Z,960.44
2016-08-21T20:45:48.437Z,960.49
2016-08-21T20:46:48.433Z,960.52
2016-08-21T20:47:48.428Z,960.54
2016-08-21T20:48:48.456Z,960.53
2016-08-21T20:49:48.427Z,960.56
2016-08-21T20:50:48.464Z,960.52
2016-08-21T20:51:48.403Z,960.62
2016-08-21T20:52:48.395Z,960.62
2016-08-21T20:53:48.392Z,960.6
2016-08-21T20:54:48.399Z,960.57
2016-08-21T20:55:48.378Z,960.54
2016-08-21T20:56:48.379Z,960.56
2016-08-21T20:57:48.429Z,960.6
2016-08-21T20:58:48.393Z,960.58
2016-08-21T20:59:48.371Z,960.54
2016-08-21T21:00:48.397Z,960.56
2016-08-21T21:01:48.404Z,960.53
2016-08-21T21:02:48.374Z,960.59
2016-08-21T21:03:48.404Z,960.54
2016-08-21T21:04:48.407Z,960.64
2016-08-21T21:05:48.337Z,960.55
2016-08-21T21:06:48.330Z,960.55
2016-08-21T21:07:48.326Z,960.57
2016-08-21T21:08:48.317Z,960.6
2016-08-21T21:09:48.314Z,960.64
2016-08-21T21:10:48.308Z,960.62
2016-08-21T21:12:48.316Z,960.68
2016-08-21T21:13:48.290Z,960.68
2016-08-21T21:14:48.346Z,960.7
2016-08-21T21:15:48.346Z,960.7
2016-08-21T21:16:48.309Z,960.7
2016-08-21T21:17:48.296Z,960.72
2016-08-21T21:18:48.295Z,960.71
2016-08-21T21:19:48.279Z,960.74
2016-08-21T21:20:48.300Z,960.79
2016-08-21T21:21:48.277Z,960.74
2016-08-21T21:22:48.254Z,960.77
2016-08-21T21:23:48.259Z,960.74
2016-08-21T21:24:48.242Z,960.75
2016-08-21T21:25:48.275Z,960.79
2016-08-21T21:26:48.240Z,960.82
2016-08-21T21:27:48.242Z,960.81
2016-08-21T21:28:48.287Z,960.81
2016-08-21T21:29:48.263Z,960.81
2016-08-21T21:30:48.245Z,960.87
2016-08-21T21:31:48.225Z,960.88
2016-08-21T21:32:48.260Z,960.89
2016-08-21T21:33:48.265Z,960.9
2016-08-21T21:34:48.295Z,960.88
2016-08-21T21:35:48.184Z,960.95
2016-08-21T21:36:48.171Z,960.95
2016-08-21T21:37:48.171Z,960.92
2016-08-21T21:38:48.166Z,960.96
2016-08-21T21:39:48.172Z,960.97
2016-08-21T21:40:48.159Z,960.98
2016-08-21T21:41:48.146Z,960.99
2016-08-21T21:42:48.144Z,961.01
2016-08-21T21:43:48.143Z,960.99
2016-08-21T21:44:48.138Z,961.04
2016-08-21T21:45:48.131Z,961.02
2016-08-21T21:46:48.153Z,961.03
2016-08-21T21:47:48.118Z,961.02
2016-08-21T21:48:48.126Z,961.02
2016-08-21T21:49:48.159Z,961.01
2016-08-21T21:50:48.102Z,961.03
2016-08-21T21:51:48.107Z,961.02
2016-08-21T21:52:48.391Z,961.08
2016-08-21T21:53:48.170Z,961.07
2016-08-21T21:54:48.129Z,961.04
2016-08-21T21:55:48.117Z,961
2016-08-21T21:56:48.080Z,961.05
2016-08-21T21:57:48.078Z,961.05
2016-08-21T21:58:48.068Z,961.08
2016-08-21T21:59:48.093Z,961.04
2016-08-21T22:00:48.055Z,961.07
2016-08-21T22:01:48.056Z,961.1
2016-08-21T22:02:48.064Z,961.1
2016-08-21T22:03:48.039Z,961.12
2016-08-21T22:04:48.039Z,961.11
2016-08-21T22:05:48.037Z,961.1
2016-08-21T22:06:48.036Z,961.09
2016-08-21T22:07:48.020Z,961.15
2016-08-21T22:08:48.015Z,961.12
2016-08-21T22:09:48.010Z,961.13
2016-08-21T22:10:48.015Z,961.19
2016-08-21T22:11:48.014Z,961.12
2016-08-21T22:12:48.004Z,961.14
2016-08-21T22:13:48.001Z,961.14
2016-08-21T22:14:48.015Z,961.16
2016-08-21T22:15:48.003Z,961.15
2016-08-21T22:16:48.043Z,961.16
2016-08-21T22:17:48.079Z,961.16
2016-08-21T22:18:47.985Z,961.17
2016-08-21T22:19:47.989Z,961.18
2016-08-21T22:20:48.024Z,961.19
2016-08-21T22:21:47.995Z,961.22
2016-08-21T22:22:48.038Z,961.23
2016-08-21T22:23:47.955Z,961.26
2016-08-21T22:24:47.939Z,961.23
2016-08-21T22:25:47.937Z,961.25
2016-08-21T22:26:47.973Z,961.24
2016-08-21T22:27:47.947Z,961.24
2016-08-21T22:28:47.972Z,961.25
2016-08-21T22:29:48.023Z,961.2
2016-08-21T22:30:47.928Z,961.17
2016-08-21T22:32:47.956Z,961.19
2016-08-21T22:33:47.941Z,961.16
2016-08-21T22:34:47.902Z,961.15
2016-08-21T22:35:47.892Z,961.19
2016-08-21T22:36:47.887Z,961.21
2016-08-21T22:37:47.877Z,961.17
2016-08-21T22:38:47.870Z,961.21
2016-08-21T22:39:47.876Z,961.19
2016-08-21T22:40:47.865Z,961.18
2016-08-21T22:41:47.859Z,961.2
2016-08-21T22:42:47.850Z,961.22
2016-08-21T22:43:47.842Z,961.19
2016-08-21T22:44:47.839Z,961.24
2016-08-21T22:45:47.846Z,961.21
2016-08-21T22:46:47.831Z,961.23
2016-08-21T22:47:47.847Z,961.27
2016-08-21T22:48:47.825Z,961.26
2016-08-21T22:49:47.821Z,961.23
2016-08-21T22:50:47.822Z,961.24
2016-08-21T22:51:47.811Z,961.23
2016-08-21T22:52:47.812Z,961.24
2016-08-21T22:53:47.810Z,961.26
2016-08-21T22:54:47.849Z,961.32
2016-08-21T22:55:47.783Z,961.27
2016-08-21T22:56:47.775Z,961.28
2016-08-21T22:57:47.784Z,961.27
2016-08-21T22:58:47.764Z,961.25
2016-08-21T22:59:47.762Z,961.24
2016-08-21T23:00:47.758Z,961.18
2016-08-21T23:01:47.760Z,961.19
2016-08-21T23:02:47.762Z,961.19
2016-08-21T23:03:47.757Z,961.22
2016-08-21T23:04:47.760Z,961.18
2016-08-21T23:05:47.736Z,961.19
2016-08-21T23:06:47.719Z,961.16
2016-08-21T23:07:47.737Z,961.16
2016-08-21T23:08:47.720Z,961.19
2016-08-21T23:09:47.715Z,961.19
2016-08-21T23:10:47.701Z,961.17
2016-08-21T23:11:47.694Z,961.15
2016-08-21T23:12:47.687Z,961.14
2016-08-21T23:13:47.691Z,961.2
2016-08-21T23:14:47.724Z,961.18
2016-08-21T23:15:47.708Z,961.15
2016-08-21T23:16:47.679Z,961.14
2016-08-21T23:17:47.664Z,961.19
2016-08-21T23:18:47.713Z,961.18
2016-08-21T23:19:47.700Z,961.19
2016-08-21T23:20:47.646Z,961.21
2016-08-21T23:21:47.656Z,961.22
2016-08-21T23:22:47.634Z,961.22
2016-08-21T23:23:47.649Z,961.25
2016-08-21T23:24:47.627Z,961.24
2016-08-21T23:25:47.649Z,961.25
2016-08-21T23:26:47.633Z,961.26
2016-08-21T23:27:47.633Z,961.28
2016-08-21T23:28:47.664Z,961.23
2016-08-21T23:29:47.669Z,961.23
2016-08-21T23:30:47.588Z,961.3
2016-08-21T23:31:47.604Z,961.24
2016-08-21T23:32:47.636Z,961.23
2016-08-21T23:33:47.645Z,961.3
2016-08-21T23:34:47.624Z,961.26
2016-08-21T23:35:47.609Z,961.3
2016-08-21T23:36:47.553Z,961.23
2016-08-21T23:37:47.568Z,961.26
2016-08-21T23:38:47.542Z,961.3
2016-08-21T23:39:47.540Z,961.32
2016-08-21T23:40:47.551Z,961.31
2016-08-21T23:41:47.562Z,961.3
2016-08-21T23:42:47.529Z,961.31
2016-08-21T23:43:47.526Z,961.3
2016-08-21T23:44:47.521Z,961.25
2016-08-21T23:45:47.535Z,961.25
2016-08-21T23:46:47.531Z,961.28
2016-08-21T23:47:47.538Z,961.27
2016-08-21T23:48:47.493Z,961.22
2016-08-21T23:49:47.489Z,961.21
2016-08-21T23:50:47.472Z,961.18
2016-08-21T23:51:47.469Z,961.25
2016-08-21T23:52:47.467Z,961.22
2016-08-21T23:53:47.455Z,961.2
2016-08-21T23:54:47.466Z,961.2
2016-08-21T23:55:47.448Z,961.19
2016-08-21T23:56:47.458Z,961.22
2016-08-21T23:57:47.491Z,961.19
2016-08-21T23:58:47.535Z,961.21
2016-08-21T23:59:47.502Z,961.18
